Airfield :
LOGIN :

Register | Disclaimer

   EN    FR    IT 

 










Legend :    VFR   Marginal VFR   IFR   Intensive IFR   Very Intensive IFR
Visi :
Ceiling :
>= 8 km
>= 3000ft
5 to 8 km
1000 to 3000 ft
1500m to 5 km
500 to 1000 ft
800 to 1500m
200 to 500 ft
< 800m
< 200 ft
Symbols :   Thunderstorms  Fog  Heavy snow  Heavy precipitations  Wind > 20 kt
SIGMETs :     Misc.  Thunderstorms  Icing  Turbulence  Mountain Waves  Volcanic Ashes






- Airport Elevation : 203 ft
- IATA code : XMJ


LFBM - Mont-De-Marsan

CURRENT METAR :
  • 301200Z AUTO VRB03KT CAVOK 20/12 Q1024 NOSIG

EXPIRED METARs :
  • 301130Z AUTO 09003KT 040V130 CAVOK 18/12 Q1025 NOSIG
  • 301100Z AUTO VRB02KT CAVOK 18/13 Q1025 NOSIG
  • 301030Z AUTO 07003KT 030V110 CAVOK 16/12 Q1025 NOSIG
  • 301000Z AUTO 07004KT 040V110 CAVOK 15/13 Q1025 NOSIG
  • 300930Z AUTO 11003KT 070V140 CAVOK 14/13 Q1025 NOSIG

TAF TAF LFBM
Valid from the 30 at 09:00 until the 31 at 09:00 UTC


300800Z 3009/3109 08005KT CAVOK
TEMPO 3021/3107 3000 BR
PROB30
TEMPO 3101/3107 0800 FG



MET'MAP, your aeronautical weather chart ! - Copyright ORBIFLY December 2007 - Disclaimer

ORBIFLY MET'MAP TEAM :

Programming & Development : Alexandra Zaïnal
Concept & original design : Baudouin d'Aumeries
Assistance for programming : Marc-Olivier Méhu
Technical & hardware support : Manuel Goepfert

Contact : metmap@orbifly.com




SOURCES & CREDITS :

   NOAA